Latest Weather Observations for Rockhampton

IDQ60801

Issued at 9:13 pm EST Saturday 9 May 2026 (issued every 10 minutes, with the page automatically refreshed every 10 minutes)

About weather observations | Map of weather stations | Latest weather observations for QLD | Other Formats
Station Details ID: 039083 Name: ROCKHAMPTON AERO Lat: -23.38 Lon: 150.48 Height: 10.4 m
Data from the previous 72 hours. | See also: Recent months at Rockhampton
Date/Time
EST
Temp
°C
App
Temp
°C
Dew
Point
°C
Rel
Hum
%
Delta-T
°C
Wind Press
QNH
hPa
Press
MSL
hPa
Rain since
9am
mm
Dir  Spd
km/h
Gust
km/h
Spd
kts
Gust
kts
09/09:00pm 19.1 19.0 15.0 77 2.4 S 9 13 5 7 1022.7 1022.6 0.0
09/08:30pm 18.4 18.3 13.9 75 2.6 SSW 7 9 4 5 1022.7 1022.6 0.0
09/08:00pm 20.2 20.2 14.3 69 3.4 SSE 7 11 4 6 1022.4 1022.3 0.0
09/07:30pm 20.8 21.0 14.2 66 3.8 SSE 6 9 3 5 1022.0 1021.9 0.0
09/07:00pm 21.4 21.0 14.1 63 4.2 ESE 9 15 5 8 1021.6 1021.5 0.0
09/06:30pm 21.3 21.0 14.5 65 4.0 E 9 13 5 7 1021.2 1021.1 0.0
09/06:00pm 22.0 21.0 14.6 63 4.3 ENE 13 20 7 11 1020.8 1020.7 0.0
09/05:30pm 22.5 21.2 13.6 57 5.2 ENE 13 20 7 11 1020.4 1020.3 0.0
09/05:00pm 23.4 21.6 12.1 49 6.4 ENE 13 19 7 10 1020.0 1019.9 0.0
09/04:30pm 24.7 22.4 10.6 41 7.8 E 13 20 7 11 1019.5 1019.4 0.0
09/04:00pm 25.1 22.6 9.8 38 8.4 ESE 13 19 7 10 1019.2 1019.1 0.0
09/03:30pm 26.0 23.9 11.0 39 8.5 E 13 17 7 9 1019.0 1018.9 0.0
09/03:00pm 25.8 23.2 10.8 39 8.4 E 15 20 8 11 1018.9 1018.8 0.0
09/02:30pm 26.0 24.0 11.4 40 8.3 E 13 22 7 12 1018.7 1018.6 0.0
09/02:00pm 25.8 24.4 10.8 39 8.4 ESE 9 19 5 10 1018.8 1018.7 0.0
09/01:30pm 25.1 22.7 8.6 35 8.9 ESE 11 20 6 11 1018.9 1018.8 0.0
09/01:00pm 25.3 23.0 7.4 32 9.4 ESE 9 15 5 8 1019.3 1019.2 0.0
09/12:30pm 25.0 22.0 7.6 33 9.2 E 13 20 7 11 1019.9 1019.8 0.0
09/12:00pm 24.6 21.5 7.3 33 9.0 E 13 24 7 13 1020.5 1020.4 0.0
09/11:30am 23.2 19.8 6.1 33 8.7 SE 13 22 7 12 1021.0 1020.9 0.0
09/11:00am 22.6 19.1 5.5 33 8.5 SE 13 20 7 11 1021.5 1021.4 0.0
09/10:30am 21.6 17.8 3.8 31 8.6 ESE 13 20 7 11 1021.8 1021.7 0.0
09/10:00am 20.7 17.3 3.9 33 8.0 SSE 11 17 6 9 1022.2 1022.1 0.0
09/09:30am 20.2 17.2 3.9 34 7.8 S 9 13 5 7 1022.3 1022.2 0.0
09/09:00am 19.1 16.6 3.7 36 7.2 SE 6 9 3 5 1022.3 1022.2 0.0
09/08:30am 17.1 14.1 4.1 42 6.1 SSE 9 11 5 6 1022.0 1021.9 0.0
09/08:00am 15.8 12.6 3.3 43 5.7 SSW 9 11 5 6 1021.9 1021.8 0.0
09/07:30am 14.3 11.5 3.2 47 5.0 S 7 11 4 6 1021.7 1021.6 0.0
09/07:00am 13.0 10.1 2.6 49 4.5 S 7 11 4 6 1021.5 1021.4 0.0
09/06:30am 12.7 9.9 3.1 52 4.2 S 7 11 4 6 1020.8 1020.7 0.0
09/06:00am 12.0 8.8 3.3 55 3.8 S 9 11 5 6 1020.2 1020.1 0.0
09/05:30am 11.2 8.7 4.0 61 3.2 SSW 6 7 3 4 1019.9 1019.8 0.0
09/05:00am 12.0 10.4 6.5 69 2.6 SSW 4 7 2 4 1019.6 1019.5 0.0
09/04:30am 10.5 9.5 5.7 72 2.2 CALM 0 0 0 0 1019.4 1019.3 0.0
09/04:00am 10.6 9.6 5.8 72 2.2 CALM 0 4 0 2 1019.3 1019.2 0.0
09/03:30am 11.0 9.8 4.7 65 2.8 CALM 0 0 0 0 1019.4 1019.3 0.0
09/03:00am 11.7 10.5 4.4 61 3.3 CALM 0 0 0 0 1019.4 1019.3 0.0
09/02:30am 12.3 9.8 3.5 55 3.9 SW 6 7 3 4 1019.5 1019.4 0.0
09/02:00am 11.7 10.2 3.2 56 3.7 CALM 0 0 0 0 1019.8 1019.7 0.0
09/01:30am 12.0 10.9 5.2 63 3.1 CALM 0 0 0 0 1019.9 1019.8 0.0
09/01:00am 12.5 11.0 3.2 53 4.1 CALM 0 0 0 0 1020.1 1020.0 0.0
09/12:30am 11.9 10.3 2.6 53 4.0 CALM 0 0 0 0 1020.1 1020.0 0.0
09/12:00am 11.7 10.1 2.2 52 4.1 CALM 0 0 0 0 1020.3 1020.2 0.0
 
Date/Time
EST
Temp
°C
App
Temp
°C
Dew
Point
°C
Rel
Hum
%
Delta-T
°C
Wind Press
QNH
hPa
Press
MSL
hPa
Rain since
9am
mm
Dir  Spd
km/h
Gust
km/h
Spd
kts
Gust
kts
08/11:30pm 12.1 10.4 1.7 49 4.4 CALM 0 0 0 0 1020.3 1020.2 0.0
08/11:00pm 12.4 10.7 1.7 48 4.6 CALM 0 0 0 0 1020.6 1020.5 0.0
08/10:30pm 12.5 10.6 0.6 44 5.0 CALM 0 0 0 0 1020.5 1020.4 0.0
08/10:00pm 13.8 11.6 0.8 41 5.5 SSW 2 7 1 4 1020.6 1020.5 0.0
08/09:30pm 13.9 11.9 0.2 39 5.7 CALM 0 0 0 0 1020.7 1020.6 0.0
08/09:00pm 14.6 11.3 0.1 37 6.1 W 7 9 4 5 1020.7 1020.6 0.0
08/08:30pm 17.0 13.6 -0.7 30 7.5 SW 7 9 4 5 1020.5 1020.4 0.0
08/08:00pm 16.7 14.6 -0.5 31 7.3 CALM 0 4 0 2 1020.1 1020.0 0.0
08/07:30pm 17.3 14.9 0.0 31 7.5 SW 2 7 1 4 1019.7 1019.6 0.0
08/07:00pm 17.7 13.7 0.4 31 7.5 SW 11 13 6 7 1019.4 1019.3 0.0
08/06:30pm 18.8 14.3 -0.6 27 8.4 SW 13 15 7 8 1018.9 1018.8 0.0
08/06:00pm 19.8 15.6 -0.8 25 8.9 SW 11 13 6 7 1018.6 1018.5 0.0
08/05:30pm 21.7 17.0 -1.6 21 10.1 SW 13 17 7 9 1018.1 1018.0 0.0
08/05:00pm 23.9 18.2 -3.4 16 11.6 SW 17 20 9 11 1017.7 1017.6 0.0
08/04:30pm 24.9 18.8 -3.5 15 12.2 SW 19 24 10 13 1017.3 1017.2 0.0
08/04:00pm 25.3 19.0 -6.1 12 12.9 SW 19 26 10 14 1017.1 1017.0 0.0
08/03:30pm 25.4 19.6 -5.0 13 12.8 SW 17 24 9 13 1017.0 1016.9 0.0
08/03:00pm 25.1 19.2 -5.2 13 12.6 SW 17 26 9 14 1016.9 1016.8 0.0
08/02:30pm 25.4 19.3 -4.0 14 12.6 SW 19 30 10 16 1017.0 1016.9 0.0
08/02:00pm 24.5 18.3 -4.7 14 12.2 SW 19 30 10 16 1017.3 1017.2 0.0
08/01:30pm 24.4 19.1 -3.9 15 12.0 S 15 26 8 14 1017.7 1017.6 0.0
08/01:00pm 23.7 17.5 -4.4 15 11.7 SSW 19 26 10 14 1018.4 1018.3 0.0
08/12:30pm 22.9 17.5 -4.2 16 11.3 SW 15 22 8 12 1018.9 1018.8 0.0
08/12:00pm 22.9 17.2 -3.4 17 11.1 SW 17 26 9 14 1019.5 1019.4 0.0
08/11:30am 22.6 16.6 -2.9 18 10.9 SSW 19 30 10 16 1019.9 1019.8 0.0
08/11:00am 21.1 15.5 -2.7 20 10.0 WSW 17 28 9 15 1020.4 1020.3 0.0
08/10:30am 20.6 15.1 -1.8 22 9.6 SW 17 24 9 13 1021.0 1020.9 0.0
08/10:00am 20.3 15.0 -0.9 24 9.2 SSW 17 26 9 14 1021.2 1021.1 0.0
08/09:30am 20.2 14.4 0.1 26 8.9 SSW 20 28 11 15 1021.3 1021.2 0.0
08/09:00am 18.9 12.7 0.0 28 8.2 SSW 22 26 12 14 1021.2 1021.1 0.0
08/08:30am 18.1 12.4 2.8 36 7.0 SW 22 26 12 14 1020.9 1020.8 0.0
08/08:00am 17.6 12.7 4.2 41 6.3 SW 19 24 10 13 1020.8 1020.7 0.0
08/07:30am 17.4 13.0 4.7 43 6.0 SW 17 20 9 11 1020.6 1020.5 0.0
08/07:00am 16.7 12.9 5.9 49 5.2 SSW 15 20 8 11 1020.2 1020.1 0.0
08/06:30am 16.5 12.7 5.8 49 5.2 SSW 15 20 8 11 1019.7 1019.6 0.0
08/06:00am 17.3 13.5 5.9 47 5.5 SSW 15 24 8 13 1019.3 1019.2 0.0
08/05:30am 17.7 13.9 5.6 45 5.9 S 15 24 8 13 1018.8 1018.7 0.0
08/05:00am 18.1 13.9 5.7 44 6.0 S 17 24 9 13 1018.4 1018.3 0.0
08/04:30am 18.6 13.3 5.1 41 6.5 SSW 22 33 12 18 1018.2 1018.1 0.0
08/04:00am 18.8 14.1 5.3 41 6.6 SSW 19 28 10 15 1018.0 1017.9 0.0
08/03:30am 19.3 15.0 5.4 40 6.8 SSW 17 24 9 13 1017.8 1017.7 0.0
08/03:00am 19.5 14.9 6.3 42 6.6 SSW 20 28 11 15 1017.5 1017.4 0.0
08/02:30am 20.0 15.6 6.7 42 6.7 SSW 19 30 10 16 1017.4 1017.3 0.0
08/02:00am 20.0 15.8 7.4 44 6.4 SSW 19 26 10 14 1017.2 1017.1 0.0
08/01:30am 20.4 16.2 7.4 43 6.7 SSW 19 26 10 14 1017.2 1017.1 0.0
08/01:00am 20.3 17.3 7.7 44 6.5 SSW 13 19 7 10 1017.1 1017.0 0.0
08/12:30am 19.0 17.9 9.8 55 4.9 S 6 7 3 4 1017.3 1017.2 0.0
08/12:00am 18.6 17.6 10.2 58 4.5 SSE 6 9 3 5 1017.5 1017.4 0.0
 
Date/Time
EST
Temp
°C
App
Temp
°C
Dew
Point
°C
Rel
Hum
%
Delta-T
°C
Wind Press
QNH
hPa
Press
MSL
hPa
Rain since
9am
mm
Dir  Spd
km/h
Gust
km/h
Spd
kts
Gust
kts
07/11:30pm 18.9 18.9 9.9 56 4.8 CALM 0 0 0 0 1017.6 1017.5 0.0
07/11:00pm 20.9 20.5 9.8 49 6.0 S 2 6 1 3 1017.8 1017.7 0.0
07/10:30pm 21.4 20.1 9.3 46 6.5 S 6 9 3 5 1017.7 1017.6 0.0
07/10:00pm 21.9 19.6 9.1 44 6.8 SSW 11 17 6 9 1017.7 1017.6 0.0
07/09:30pm 21.8 19.7 9.7 46 6.5 SSW 11 13 6 7 1017.6 1017.5 0.0
07/09:00pm 22.5 20.4 9.6 44 7.0 SSW 11 15 6 8 1017.6 1017.5 0.0
07/08:30pm 23.3 21.8 10.7 45 7.0 S 9 13 5 7 1017.4 1017.3 0.0
07/08:00pm 24.0 21.3 10.3 42 7.5 SSW 15 20 8 11 1017.1 1017.0 0.0
07/07:30pm 24.3 22.6 11.3 44 7.3 SSW 11 13 6 7 1016.9 1016.8 0.0
07/07:00pm 25.2 22.8 11.4 42 7.8 SSW 15 19 8 10 1016.4 1016.3 0.0
07/06:30pm 26.2 22.9 11.5 40 8.4 SSW 20 28 11 15 1015.7 1015.6 0.0
07/06:00pm 26.7 25.0 14.8 48 7.2 SSW 17 22 9 12 1015.1 1015.0 0.0
07/05:30pm 27.5 26.3 16.1 49 7.0 SSW 17 20 9 11 1014.6 1014.5 0.0
07/05:00pm 28.6 27.1 16.2 47 7.7 SSW 19 24 10 13 1014.2 1014.1 0.0
07/04:30pm 29.4 28.6 16.2 44 8.2 SSW 15 20 8 11 1013.7 1013.6 0.0
07/04:00pm 29.2 28.1 16.4 46 8.0 SSW 17 24 9 13 1013.6 1013.5 0.0
07/03:30pm 28.7 29.3 16.9 48 7.4 ESE 9 13 5 7 1013.5 1013.4 0.0
07/03:00pm 29.1 29.6 16.6 46 7.8 ESE 9 17 5 9 1013.4 1013.3 0.0
07/02:30pm 29.7 29.4 16.5 45 8.2 S 13 20 7 11 1013.6 1013.5 0.0
07/02:00pm 29.4 28.9 16.9 47 7.8 S 15 22 8 12 1013.9 1013.8 0.0
07/01:30pm 28.5 28.8 17.1 50 7.2 SW 11 19 6 10 1014.0 1013.9 0.0
07/01:00pm 28.7 29.9 18.2 53 6.7 S 9 13 5 7 1014.6 1014.5 0.0
07/12:30pm 28.6 29.4 17.2 50 7.2 SE 9 13 5 7 1014.8 1014.7 0.0
07/12:00pm 27.9 28.9 17.7 53 6.4 SSE 9 13 5 7 1015.3 1015.2 0.0
07/11:30am 27.9 28.2 18.0 55 6.3 E 13 20 7 11 1015.6 1015.5 0.0
07/11:00am 26.9 27.9 17.7 57 5.8 SE 9 15 5 8 1016.3 1016.2 0.0
07/10:30am 26.1 26.9 18.2 61 5.0 SE 11 15 6 8 1016.8 1016.7 0.0
07/10:00am 26.1 26.7 18.5 63 4.8 SE 13 17 7 9 1016.9 1016.8 0.0
07/09:30am 25.1 27.1 19.2 70 3.8 SSE 7 11 4 6 1016.9 1016.8 0.0
07/09:00am 25.1 27.0 19.0 69 3.9 SSE 7 13 4 7 1017.0 1016.9 0.0
07/08:30am 23.7 25.4 19.4 77 2.8 S 9 11 5 6 1016.7 1016.6 0.0
07/08:00am 22.5 24.7 19.3 82 2.0 S 6 9 3 5 1016.3 1016.2 0.0
07/07:30am 21.1 23.1 19.2 89 1.2 S 7 9 4 5 1016.2 1016.1 0.0
07/07:00am 20.0 23.4 19.3 96 0.4 CALM 0 0 0 0 1016.0 1015.9 0.0
07/06:30am 18.9 21.8 18.2 96 0.4 CALM 0 0 0 0 1015.7 1015.6 0.0
07/06:00am 18.9 21.7 17.9 94 0.6 CALM 0 0 0 0 1015.4 1015.3 0.0
07/05:30am 19.5 21.3 18.3 93 0.7 S 6 7 3 4 1015.2 1015.1 0.0
07/05:00am 19.7 22.7 18.5 93 0.7 CALM 0 0 0 0 1014.8 1014.7 0.0
07/04:30am 19.8 22.8 18.5 92 0.8 CALM 0 0 0 0 1014.7 1014.6 0.0
07/04:14am 20.2 23.2 18.5 90 1.1 CALM 0 0 0 0 1014.7 1014.6 0.0
07/04:00am 20.4 23.5 18.7 90 1.1 CALM 0 0 0 0 1014.7 1014.6 0.0
07/03:57am 20.5 23.7 18.8 90 1.1 CALM 0 0 0 0 1014.7 1014.6 0.0
07/03:34am 20.7 23.1 18.8 89 1.2 S 4 7 2 4 1014.9 1014.8 0.0
07/03:30am 20.7 23.5 18.8 89 1.2 S 2 7 1 4 1014.9 1014.8 0.0
07/03:01am 21.0 22.9 18.9 88 1.3 SE 7 9 4 5 1014.9 1014.8 0.0
07/03:00am 21.0 22.9 18.9 88 1.3 SE 7 9 4 5 1014.9 1014.8 0.0
07/02:30am 21.3 23.2 18.9 86 1.5 SE 7 11 4 6 1015.2 1015.1 0.0
07/02:00am 21.5 23.1 19.1 86 1.5 SSE 9 11 5 6 1015.4 1015.3 0.0
07/01:46am 21.5 23.1 19.2 87 1.5 SSE 9 11 5 6 1015.5 1015.4 0.0
07/01:30am 21.5 23.5 19.2 87 1.5 SSE 7 9 4 5 1015.7 1015.6 0.0
07/01:15am 21.5 24.5 19.2 87 1.5 SSE 2 7 1 4 1015.7 1015.6 0.0
07/01:00am 21.5 24.5 19.2 87 1.5 SE 2 9 1 5 1015.5 1015.4 0.0
07/12:30am 21.8 23.9 19.4 86 1.5 SE 7 9 4 5 1015.5 1015.4 0.0
07/12:00am 22.0 24.2 19.5 86 1.6 SE 7 9 4 5 1015.6 1015.5 0.0
 
Date/Time
EST
Temp
°C
App
Temp
°C
Dew
Point
°C
Rel
Hum
%
Delta-T
°C
Wind Press
QNH
hPa
Press
MSL
hPa
Rain since
9am
mm
Dir  Spd
km/h
Gust
km/h
Spd
kts
Gust
kts
06/11:30pm 22.4 24.4 19.9 86 1.6 SE 9 13 5 7 1015.8 1015.7 0.0
06/11:00pm 22.8 24.8 20.0 84 1.8 SSE 9 15 5 8 1015.9 1015.8 0.0
06/10:30pm 23.2 24.8 20.0 82 2.1 SE 11 15 6 8 1016.0 1015.9 0.0
06/10:00pm 23.2 25.2 20.0 82 2.1 SE 9 13 5 7 1016.2 1016.1 0.0
06/09:30pm 22.9 25.3 20.1 84 1.8 SSE 7 11 4 6 1016.1 1016.0 0.0

Other formats

Comma delimited format used in spreadsheet applications
http://www.bom.gov.au/fwo/IDQ60801/IDQ60801.94374.axf

JavaScript Object Notation format (JSON) in row-major order
http://www.bom.gov.au/fwo/IDQ60801/IDQ60801.94374.json

Data quality

Most of these data are generated automatically and are frequently updated. Quality checks on data are not normally performed. It is possible for incorrect values to appear. Refer to information at About Latest Weather Observations and please check the disclaimer before using these data.